sensor_id;sensor_type;location;lat;lon;timestamp;temperature;humidity
9179;DHT22;4624;48.126;11.546;2022-10-16T00:01:22;14.30;99.90
9179;DHT22;4624;48.126;11.546;2022-10-16T00:03:49;14.30;99.90
9179;DHT22;4624;48.126;11.546;2022-10-16T00:06:19;14.30;99.90
9179;DHT22;4624;48.126;11.546;2022-10-16T00:08:46;14.20;99.90
9179;DHT22;4624;48.126;11.546;2022-10-16T00:11:15;14.20;99.90
9179;DHT22;4624;48.126;11.546;2022-10-16T00:13:43;14.10;99.90
9179;DHT22;4624;48.126;11.546;2022-10-16T00:16:11;14.10;99.90
9179;DHT22;4624;48.126;11.546;2022-10-16T00:18:39;14.20;99.90
9179;DHT22;4624;48.126;11.546;2022-10-16T00:21:09;14.20;99.90
9179;DHT22;4624;48.126;11.546;2022-10-16T00:23:37;14.10;99.90
9179;DHT22;4624;48.126;11.546;2022-10-16T00:26:06;14.10;99.90
9179;DHT22;4624;48.126;11.546;2022-10-16T00:28:34;13.90;99.90
9179;DHT22;4624;48.126;11.546;2022-10-16T00:31:03;13.90;99.90
9179;DHT22;4624;48.126;11.546;2022-10-16T00:33:30;13.90;99.90
9179;DHT22;4624;48.126;11.546;2022-10-16T00:35:57;14.00;99.90
9179;DHT22;4624;48.126;11.546;2022-10-16T00:38:24;13.90;99.90
9179;DHT22;4624;48.126;11.546;2022-10-16T00:40:52;14.00;99.90
9179;DHT22;4624;48.126;11.546;2022-10-16T00:43:38;14.00;99.90
9179;DHT22;4624;48.126;11.546;2022-10-16T00:46:11;14.00;99.90
9179;DHT22;4624;48.126;11.546;2022-10-16T00:48:39;14.00;99.90
9179;DHT22;4624;48.126;11.546;2022-10-16T00:51:07;14.00;99.90
9179;DHT22;4624;48.126;11.546;2022-10-16T00:53:34;14.00;99.90
9179;DHT22;4624;48.126;11.546;2022-10-16T00:56:03;14.00;99.90
9179;DHT22;4624;48.126;11.546;2022-10-16T00:58:30;14.00;99.90
9179;DHT22;4624;48.126;11.546;2022-10-16T01:00:57;14.00;99.90
9179;DHT22;4624;48.126;11.546;2022-10-16T01:03:26;14.00;99.90
9179;DHT22;4624;48.126;11.546;2022-10-16T01:06:03;13.90;99.90
9179;DHT22;4624;48.126;11.546;2022-10-16T01:08:39;14.00;99.90
9179;DHT22;4624;48.126;11.546;2022-10-16T01:11:17;13.90;99.90
9179;DHT22;4624;48.126;11.546;2022-10-16T01:13:48;13.90;99.90
9179;DHT22;4624;48.126;11.546;2022-10-16T01:16:21;14.00;99.90
9179;DHT22;4624;48.126;11.546;2022-10-16T01:18:56;13.90;99.90
9179;DHT22;4624;48.126;11.546;2022-10-16T01:21:26;13.90;99.90
9179;DHT22;4624;48.126;11.546;2022-10-16T01:24:03;13.90;99.90
9179;DHT22;4624;48.126;11.546;2022-10-16T01:27:05;13.90;99.90
9179;DHT22;4624;48.126;11.546;2022-10-16T01:29:36;13.90;99.90
9179;DHT22;4624;48.126;11.546;2022-10-16T01:32:10;13.90;99.90
9179;DHT22;4624;48.126;11.546;2022-10-16T01:34:44;13.90;99.90
9179;DHT22;4624;48.126;11.546;2022-10-16T01:37:15;13.90;99.90
9179;DHT22;4624;48.126;11.546;2022-10-16T01:39:45;13.90;99.90
9179;DHT22;4624;48.126;11.546;2022-10-16T01:42:17;13.80;99.90
9179;DHT22;4624;48.126;11.546;2022-10-16T01:44:46;13.80;99.90
9179;DHT22;4624;48.126;11.546;2022-10-16T01:47:15;13.90;99.90
9179;DHT22;4624;48.126;11.546;2022-10-16T01:49:44;13.80;99.90
9179;DHT22;4624;48.126;11.546;2022-10-16T01:52:14;13.80;99.90
9179;DHT22;4624;48.126;11.546;2022-10-16T01:54:43;13.80;99.90
9179;DHT22;4624;48.126;11.546;2022-10-16T01:57:14;13.80;99.90
9179;DHT22;4624;48.126;11.546;2022-10-16T01:59:44;13.80;99.90
9179;DHT22;4624;48.126;11.546;2022-10-16T02:02:13;13.90;99.90
9179;DHT22;4624;48.126;11.546;2022-10-16T02:04:44;13.80;99.90
9179;DHT22;4624;48.126;11.546;2022-10-16T02:07:12;13.90;99.90
9179;DHT22;4624;48.126;11.546;2022-10-16T02:09:40;13.90;99.90
9179;DHT22;4624;48.126;11.546;2022-10-16T02:12:12;13.90;99.90
9179;DHT22;4624;48.126;11.546;2022-10-16T02:14:41;13.90;99.90
9179;DHT22;4624;48.126;11.546;2022-10-16T02:17:13;13.90;99.90
9179;DHT22;4624;48.126;11.546;2022-10-16T02:19:41;13.90;99.90
9179;DHT22;4624;48.126;11.546;2022-10-16T02:22:12;13.80;99.90
9179;DHT22;4624;48.126;11.546;2022-10-16T02:24:48;13.80;99.90
9179;DHT22;4624;48.126;11.546;2022-10-16T02:27:20;13.80;99.90
9179;DHT22;4624;48.126;11.546;2022-10-16T02:29:54;13.80;99.90
9179;DHT22;4624;48.126;11.546;2022-10-16T02:32:26;13.80;99.90
9179;DHT22;4624;48.126;11.546;2022-10-16T02:34:54;13.90;99.90
9179;DHT22;4624;48.126;11.546;2022-10-16T02:37:21;13.90;99.90
9179;DHT22;4624;48.126;11.546;2022-10-16T02:39:48;13.80;99.90
9179;DHT22;4624;48.126;11.546;2022-10-16T02:42:17;13.80;99.90
9179;DHT22;4624;48.126;11.546;2022-10-16T02:44:44;13.80;99.90
9179;DHT22;4624;48.126;11.546;2022-10-16T02:47:12;13.80;99.90
9179;DHT22;4624;48.126;11.546;2022-10-16T02:49:39;13.80;99.90
9179;DHT22;4624;48.126;11.546;2022-10-16T02:52:05;13.80;99.90
9179;DHT22;4624;48.126;11.546;2022-10-16T02:54:32;13.80;99.90
9179;DHT22;4624;48.126;11.546;2022-10-16T02:56:59;13.70;99.90
9179;DHT22;4624;48.126;11.546;2022-10-16T02:59:26;13.70;99.90
9179;DHT22;4624;48.126;11.546;2022-10-16T03:01:52;13.70;99.90
9179;DHT22;4624;48.126;11.546;2022-10-16T03:04:20;13.70;99.90
9179;DHT22;4624;48.126;11.546;2022-10-16T03:06:47;13.70;99.90
9179;DHT22;4624;48.126;11.546;2022-10-16T03:09:14;13.60;99.90
9179;DHT22;4624;48.126;11.546;2022-10-16T03:11:41;13.60;99.90
9179;DHT22;4624;48.126;11.546;2022-10-16T03:14:07;13.60;99.90
9179;DHT22;4624;48.126;11.546;2022-10-16T03:16:34;13.60;99.90
9179;DHT22;4624;48.126;11.546;2022-10-16T03:19:01;13.50;99.90
9179;DHT22;4624;48.126;11.546;2022-10-16T03:21:29;13.50;99.90
9179;DHT22;4624;48.126;11.546;2022-10-16T03:23:56;13.50;99.90
9179;DHT22;4624;48.126;11.546;2022-10-16T03:26:22;13.50;99.90
9179;DHT22;4624;48.126;11.546;2022-10-16T03:28:49;13.50;99.90
9179;DHT22;4624;48.126;11.546;2022-10-16T03:31:16;13.50;99.90
9179;DHT22;4624;48.126;11.546;2022-10-16T03:33:42;13.50;99.90
9179;DHT22;4624;48.126;11.546;2022-10-16T03:36:09;13.50;99.90
9179;DHT22;4624;48.126;11.546;2022-10-16T03:38:37;13.50;99.90
9179;DHT22;4624;48.126;11.546;2022-10-16T03:41:04;13.50;99.90
9179;DHT22;4624;48.126;11.546;2022-10-16T03:43:33;13.50;99.90
9179;DHT22;4624;48.126;11.546;2022-10-16T03:45:59;13.60;99.90
9179;DHT22;4624;48.126;11.546;2022-10-16T03:48:26;13.60;99.90
9179;DHT22;4624;48.126;11.546;2022-10-16T03:50:53;13.60;99.90
9179;DHT22;4624;48.126;11.546;2022-10-16T03:53:20;13.70;99.90
9179;DHT22;4624;48.126;11.546;2022-10-16T03:55:48;13.60;99.90
9179;DHT22;4624;48.126;11.546;2022-10-16T03:58:15;13.60;99.90
9179;DHT22;4624;48.126;11.546;2022-10-16T04:00:42;13.70;99.90
9179;DHT22;4624;48.126;11.546;2022-10-16T04:03:09;13.70;99.90
9179;DHT22;4624;48.126;11.546;2022-10-16T04:05:37;13.70;99.90
9179;DHT22;4624;48.126;11.546;2022-10-16T04:08:04;13.70;99.90
9179;DHT22;4624;48.126;11.546;2022-10-16T04:10:30;13.70;99.90
9179;DHT22;4624;48.126;11.546;2022-10-16T04:12:58;13.70;99.90
9179;DHT22;4624;48.126;11.546;2022-10-16T04:15:26;13.70;99.90
9179;DHT22;4624;48.126;11.546;2022-10-16T04:17:52;13.80;99.90
9179;DHT22;4624;48.126;11.546;2022-10-16T04:20:19;13.80;99.90
9179;DHT22;4624;48.126;11.546;2022-10-16T04:22:46;13.80;99.90
9179;DHT22;4624;48.126;11.546;2022-10-16T04:25:13;13.80;99.90
9179;DHT22;4624;48.126;11.546;2022-10-16T04:27:40;13.80;99.90
9179;DHT22;4624;48.126;11.546;2022-10-16T04:30:09;13.80;99.90
9179;DHT22;4624;48.126;11.546;2022-10-16T04:32:35;13.90;99.90
9179;DHT22;4624;48.126;11.546;2022-10-16T04:35:02;13.90;99.90
9179;DHT22;4624;48.126;11.546;2022-10-16T04:37:29;13.90;99.90
9179;DHT22;4624;48.126;11.546;2022-10-16T04:39:56;14.00;99.90
9179;DHT22;4624;48.126;11.546;2022-10-16T04:42:23;14.00;99.90
9179;DHT22;4624;48.126;11.546;2022-10-16T04:44:49;14.00;99.90
9179;DHT22;4624;48.126;11.546;2022-10-16T04:47:17;14.00;99.90
9179;DHT22;4624;48.126;11.546;2022-10-16T04:49:44;14.00;99.90
9179;DHT22;4624;48.126;11.546;2022-10-16T04:52:11;14.00;99.90
9179;DHT22;4624;48.126;11.546;2022-10-16T04:54:38;14.10;99.90
9179;DHT22;4624;48.126;11.546;2022-10-16T04:57:04;14.00;99.90
9179;DHT22;4624;48.126;11.546;2022-10-16T04:59:31;14.10;99.90
9179;DHT22;4624;48.126;11.546;2022-10-16T05:01:58;14.00;99.90
9179;DHT22;4624;48.126;11.546;2022-10-16T05:04:26;14.00;99.90
9179;DHT22;4624;48.126;11.546;2022-10-16T05:06:53;14.00;99.90
9179;DHT22;4624;48.126;11.546;2022-10-16T05:09:19;14.00;99.90
9179;DHT22;4624;48.126;11.546;2022-10-16T05:11:46;14.00;99.90
9179;DHT22;4624;48.126;11.546;2022-10-16T05:14:13;14.00;99.90
9179;DHT22;4624;48.126;11.546;2022-10-16T05:16:39;14.00;99.90
9179;DHT22;4624;48.126;11.546;2022-10-16T05:19:06;14.10;99.90
9179;DHT22;4624;48.126;11.546;2022-10-16T05:21:34;14.10;99.90
9179;DHT22;4624;48.126;11.546;2022-10-16T05:24:01;14.10;99.90
9179;DHT22;4624;48.126;11.546;2022-10-16T05:26:28;14.10;99.90
9179;DHT22;4624;48.126;11.546;2022-10-16T05:28:54;14.10;99.90
9179;DHT22;4624;48.126;11.546;2022-10-16T05:31:21;14.00;99.90
9179;DHT22;4624;48.126;11.546;2022-10-16T05:33:48;14.00;99.90
9179;DHT22;4624;48.126;11.546;2022-10-16T05:36:14;14.00;99.90
9179;DHT22;4624;48.126;11.546;2022-10-16T05:38:43;14.10;99.90
9179;DHT22;4624;48.126;11.546;2022-10-16T05:41:09;14.10;99.90
9179;DHT22;4624;48.126;11.546;2022-10-16T05:43:36;14.10;99.90
9179;DHT22;4624;48.126;11.546;2022-10-16T05:46:04;14.10;99.90
9179;DHT22;4624;48.126;11.546;2022-10-16T05:48:32;14.10;99.90
9179;DHT22;4624;48.126;11.546;2022-10-16T05:51:00;14.10;99.90
9179;DHT22;4624;48.126;11.546;2022-10-16T05:53:28;14.00;99.90
9179;DHT22;4624;48.126;11.546;2022-10-16T05:55:57;14.10;99.90
9179;DHT22;4624;48.126;11.546;2022-10-16T05:58:24;14.10;99.90
9179;DHT22;4624;48.126;11.546;2022-10-16T06:00:55;14.20;99.90
9179;DHT22;4624;48.126;11.546;2022-10-16T06:03:22;14.20;99.90
9179;DHT22;4624;48.126;11.546;2022-10-16T06:05:49;14.20;99.90
9179;DHT22;4624;48.126;11.546;2022-10-16T06:08:16;14.20;99.90
9179;DHT22;4624;48.126;11.546;2022-10-16T06:10:43;14.20;99.90
9179;DHT22;4624;48.126;11.546;2022-10-16T06:13:12;14.20;99.90
9179;DHT22;4624;48.126;11.546;2022-10-16T06:15:39;14.30;99.90
9179;DHT22;4624;48.126;11.546;2022-10-16T06:18:07;14.30;99.90
9179;DHT22;4624;48.126;11.546;2022-10-16T06:20:35;14.30;99.90
9179;DHT22;4624;48.126;11.546;2022-10-16T06:23:02;14.30;99.90
9179;DHT22;4624;48.126;11.546;2022-10-16T06:25:29;14.30;99.90
9179;DHT22;4624;48.126;11.546;2022-10-16T06:27:56;14.30;99.90
9179;DHT22;4624;48.126;11.546;2022-10-16T06:30:24;14.30;99.90
9179;DHT22;4624;48.126;11.546;2022-10-16T06:32:51;14.40;99.90
9179;DHT22;4624;48.126;11.546;2022-10-16T06:35:17;14.50;99.90
9179;DHT22;4624;48.126;11.546;2022-10-16T06:37:44;14.50;99.90
9179;DHT22;4624;48.126;11.546;2022-10-16T06:40:11;14.60;99.90
9179;DHT22;4624;48.126;11.546;2022-10-16T06:42:40;14.60;99.90
9179;DHT22;4624;48.126;11.546;2022-10-16T06:45:07;14.70;99.90
9179;DHT22;4624;48.126;11.546;2022-10-16T06:47:35;14.70;99.90
9179;DHT22;4624;48.126;11.546;2022-10-16T06:50:03;14.70;99.90
9179;DHT22;4624;48.126;11.546;2022-10-16T06:52:32;14.70;99.90
9179;DHT22;4624;48.126;11.546;2022-10-16T06:54:59;14.70;99.90
9179;DHT22;4624;48.126;11.546;2022-10-16T06:57:25;14.80;99.90
9179;DHT22;4624;48.126;11.546;2022-10-16T06:59:52;14.80;99.90
9179;DHT22;4624;48.126;11.546;2022-10-16T07:02:19;14.80;99.90
9179;DHT22;4624;48.126;11.546;2022-10-16T07:04:47;14.90;99.90
9179;DHT22;4624;48.126;11.546;2022-10-16T07:07:14;14.90;99.90
9179;DHT22;4624;48.126;11.546;2022-10-16T07:09:41;15.00;99.90
9179;DHT22;4624;48.126;11.546;2022-10-16T07:12:07;15.10;99.90
9179;DHT22;4624;48.126;11.546;2022-10-16T07:14:34;15.20;99.90
9179;DHT22;4624;48.126;11.546;2022-10-16T07:17:01;15.90;99.90
9179;DHT22;4624;48.126;11.546;2022-10-16T07:19:28;17.00;99.90
9179;DHT22;4624;48.126;11.546;2022-10-16T07:21:56;18.20;99.90
9179;DHT22;4624;48.126;11.546;2022-10-16T07:24:23;18.60;99.90
9179;DHT22;4624;48.126;11.546;2022-10-16T07:26:50;19.00;99.90
9179;DHT22;4624;48.126;11.546;2022-10-16T07:29:19;19.00;99.90
9179;DHT22;4624;48.126;11.546;2022-10-16T07:31:46;19.00;99.90
9179;DHT22;4624;48.126;11.546;2022-10-16T07:34:15;19.10;99.90
9179;DHT22;4624;48.126;11.546;2022-10-16T07:36:42;19.30;99.90
9179;DHT22;4624;48.126;11.546;2022-10-16T07:39:10;19.60;99.90
9179;DHT22;4624;48.126;11.546;2022-10-16T07:41:36;19.80;99.90
9179;DHT22;4624;48.126;11.546;2022-10-16T07:44:04;20.30;99.90
9179;DHT22;4624;48.126;11.546;2022-10-16T07:46:31;21.00;99.90
9179;DHT22;4624;48.126;11.546;2022-10-16T07:48:59;21.70;99.90
9179;DHT22;4624;48.126;11.546;2022-10-16T07:51:26;22.10;99.90
9179;DHT22;4624;48.126;11.546;2022-10-16T07:53:53;22.40;99.70
9179;DHT22;4624;48.126;11.546;2022-10-16T07:56:21;22.80;98.80
9179;DHT22;4624;48.126;11.546;2022-10-16T07:58:49;23.00;98.10
9179;DHT22;4624;48.126;11.546;2022-10-16T08:01:17;22.90;96.80
9179;DHT22;4624;48.126;11.546;2022-10-16T08:03:44;22.70;95.90
9179;DHT22;4624;48.126;11.546;2022-10-16T08:06:11;22.80;94.50
9179;DHT22;4624;48.126;11.546;2022-10-16T08:08:38;23.00;94.50
9179;DHT22;4624;48.126;11.546;2022-10-16T08:11:05;23.50;93.30
9179;DHT22;4624;48.126;11.546;2022-10-16T08:13:33;23.90;93.00
9179;DHT22;4624;48.126;11.546;2022-10-16T08:16:00;24.40;92.60
9179;DHT22;4624;48.126;11.546;2022-10-16T08:18:29;24.80;91.20
9179;DHT22;4624;48.126;11.546;2022-10-16T08:20:56;25.30;90.80
9179;DHT22;4624;48.126;11.546;2022-10-16T08:23:23;25.70;89.50
9179;DHT22;4624;48.126;11.546;2022-10-16T08:25:51;26.20;87.30
9179;DHT22;4624;48.126;11.546;2022-10-16T08:28:18;26.50;85.10
9179;DHT22;4624;48.126;11.546;2022-10-16T08:30:47;26.90;82.60
9179;DHT22;4624;48.126;11.546;2022-10-16T08:33:13;27.20;79.80
9179;DHT22;4624;48.126;11.546;2022-10-16T08:35:40;27.60;77.10
9179;DHT22;4624;48.126;11.546;2022-10-16T08:38:07;27.70;74.90
9179;DHT22;4624;48.126;11.546;2022-10-16T08:40:36;28.10;74.30
9179;DHT22;4624;48.126;11.546;2022-10-16T08:43:14;28.50;71.90
9179;DHT22;4624;48.126;11.546;2022-10-16T08:46:05;28.80;69.70
9179;DHT22;4624;48.126;11.546;2022-10-16T08:48:42;29.30;67.80
9179;DHT22;4624;48.126;11.546;2022-10-16T08:51:14;29.60;65.70
9179;DHT22;4624;48.126;11.546;2022-10-16T08:53:46;29.90;64.40
9179;DHT22;4624;48.126;11.546;2022-10-16T08:56:17;30.20;61.50
9179;DHT22;4624;48.126;11.546;2022-10-16T08:58:45;30.60;59.70
9179;DHT22;4624;48.126;11.546;2022-10-16T09:01:15;30.40;58.00
9179;DHT22;4624;48.126;11.546;2022-10-16T09:04:04;30.50;58.20
9179;DHT22;4624;48.126;11.546;2022-10-16T09:06:42;30.80;57.20
9179;DHT22;4624;48.126;11.546;2022-10-16T09:12:04;31.70;55.10
9179;DHT22;4624;48.126;11.546;2022-10-16T09:14:48;32.20;53.80
9179;DHT22;4624;48.126;11.546;2022-10-16T09:17:33;32.50;53.00
9179;DHT22;4624;48.126;11.546;2022-10-16T09:20:17;32.80;51.60
9179;DHT22;4624;48.126;11.546;2022-10-16T09:22:45;33.20;50.30
9179;DHT22;4624;48.126;11.546;2022-10-16T09:25:14;33.50;49.50
9179;DHT22;4624;48.126;11.546;2022-10-16T09:27:42;33.40;48.00
9179;DHT22;4624;48.126;11.546;2022-10-16T09:30:12;33.70;48.60
9179;DHT22;4624;48.126;11.546;2022-10-16T09:32:41;34.00;47.90
9179;DHT22;4624;48.126;11.546;2022-10-16T09:35:14;34.30;47.40
9179;DHT22;4624;48.126;11.546;2022-10-16T09:37:42;34.30;45.70
9179;DHT22;4624;48.126;11.546;2022-10-16T09:40:13;34.00;45.20
9179;DHT22;4624;48.126;11.546;2022-10-16T09:42:40;33.90;45.60
9179;DHT22;4624;48.126;11.546;2022-10-16T09:45:20;34.30;45.70
9179;DHT22;4624;48.126;11.546;2022-10-16T09:47:49;34.80;44.90
9179;DHT22;4624;48.126;11.546;2022-10-16T09:50:24;35.10;44.10
9179;DHT22;4624;48.126;11.546;2022-10-16T09:53:03;35.50;44.80
9179;DHT22;4624;48.126;11.546;2022-10-16T09:55:30;35.60;44.00
9179;DHT22;4624;48.126;11.546;2022-10-16T09:57:57;35.80;43.20
9179;DHT22;4624;48.126;11.546;2022-10-16T10:00:24;35.90;42.90
9179;DHT22;4624;48.126;11.546;2022-10-16T10:02:53;36.10;42.60
9179;DHT22;4624;48.126;11.546;2022-10-16T10:05:22;36.50;41.90
9179;DHT22;4624;48.126;11.546;2022-10-16T10:07:55;36.60;42.00
9179;DHT22;4624;48.126;11.546;2022-10-16T10:10:24;36.10;41.70
9179;DHT22;4624;48.126;11.546;2022-10-16T10:12:52;35.30;42.50
9179;DHT22;4624;48.126;11.546;2022-10-16T10:15:19;34.70;42.80
9179;DHT22;4624;48.126;11.546;2022-10-16T10:17:48;33.60;44.40
9179;DHT22;4624;48.126;11.546;2022-10-16T10:20:25;32.60;45.90
9179;DHT22;4624;48.126;11.546;2022-10-16T10:22:53;32.30;46.60
9179;DHT22;4624;48.126;11.546;2022-10-16T10:25:38;32.50;46.30
9179;DHT22;4624;48.126;11.546;2022-10-16T10:28:28;32.40;45.80
9179;DHT22;4624;48.126;11.546;2022-10-16T10:31:04;32.30;46.50
9179;DHT22;4624;48.126;11.546;2022-10-16T10:33:39;32.20;46.10
9179;DHT22;4624;48.126;11.546;2022-10-16T10:36:21;32.60;46.00
9179;DHT22;4624;48.126;11.546;2022-10-16T10:38:52;33.10;44.70
9179;DHT22;4624;48.126;11.546;2022-10-16T10:41:52;33.20;44.40
9179;DHT22;4624;48.126;11.546;2022-10-16T10:44:30;33.10;45.00
9179;DHT22;4624;48.126;11.546;2022-10-16T10:47:08;33.70;44.50
9179;DHT22;4624;48.126;11.546;2022-10-16T10:49:47;34.40;43.60
9179;DHT22;4624;48.126;11.546;2022-10-16T10:52:37;35.00;42.70
9179;DHT22;4624;48.126;11.546;2022-10-16T10:55:14;34.30;42.80
9179;DHT22;4624;48.126;11.546;2022-10-16T11:00:45;33.60;43.50
9179;DHT22;4624;48.126;11.546;2022-10-16T11:03:30;33.50;43.10
9179;DHT22;4624;48.126;11.546;2022-10-16T11:06:05;33.00;44.10
9179;DHT22;4624;48.126;11.546;2022-10-16T11:08:37;32.60;43.50
9179;DHT22;4624;48.126;11.546;2022-10-16T11:11:09;32.30;43.30
9179;DHT22;4624;48.126;11.546;2022-10-16T11:13:42;32.90;43.20
9179;DHT22;4624;48.126;11.546;2022-10-16T11:16:15;33.90;42.20
9179;DHT22;4624;48.126;11.546;2022-10-16T11:18:49;34.70;40.70
9179;DHT22;4624;48.126;11.546;2022-10-16T11:21:19;35.00;39.80
9179;DHT22;4624;48.126;11.546;2022-10-16T11:23:53;34.50;39.60
9179;DHT22;4624;48.126;11.546;2022-10-16T11:26:24;33.60;40.80
9179;DHT22;4624;48.126;11.546;2022-10-16T11:28:53;33.00;41.30
9179;DHT22;4624;48.126;11.546;2022-10-16T11:31:26;33.10;41.10
9179;DHT22;4624;48.126;11.546;2022-10-16T11:34:01;33.20;40.70
9179;DHT22;4624;48.126;11.546;2022-10-16T11:36:34;32.70;41.90
9179;DHT22;4624;48.126;11.546;2022-10-16T11:39:11;32.30;42.50
9179;DHT22;4624;48.126;11.546;2022-10-16T11:41:47;31.50;41.70
9179;DHT22;4624;48.126;11.546;2022-10-16T11:44:23;30.60;43.00
9179;DHT22;4624;48.126;11.546;2022-10-16T11:47:01;30.00;43.60
9179;DHT22;4624;48.126;11.546;2022-10-16T11:49:33;29.80;45.10
9179;DHT22;4624;48.126;11.546;2022-10-16T11:52:07;29.70;44.60
9179;DHT22;4624;48.126;11.546;2022-10-16T11:54:41;29.60;45.00
9179;DHT22;4624;48.126;11.546;2022-10-16T11:57:14;29.80;45.20
9179;DHT22;4624;48.126;11.546;2022-10-16T11:59:45;30.30;44.70
9179;DHT22;4624;48.126;11.546;2022-10-16T12:02:38;30.70;44.10
9179;DHT22;4624;48.126;11.546;2022-10-16T12:05:19;30.40;43.80
9179;DHT22;4624;48.126;11.546;2022-10-16T12:07:54;30.00;43.70
9179;DHT22;4624;48.126;11.546;2022-10-16T12:10:27;30.20;43.60
9179;DHT22;4624;48.126;11.546;2022-10-16T12:12:54;30.80;42.80
9179;DHT22;4624;48.126;11.546;2022-10-16T12:15:24;31.80;42.30
9179;DHT22;4624;48.126;11.546;2022-10-16T12:17:52;32.40;41.80
9179;DHT22;4624;48.126;11.546;2022-10-16T12:20:22;32.50;41.80
9179;DHT22;4624;48.126;11.546;2022-10-16T12:22:53;32.70;41.10
9179;DHT22;4624;48.126;11.546;2022-10-16T12:25:24;33.70;40.20
9179;DHT22;4624;48.126;11.546;2022-10-16T12:28:00;35.20;38.00
9179;DHT22;4624;48.126;11.546;2022-10-16T12:30:30;36.10;37.10
9179;DHT22;4624;48.126;11.546;2022-10-16T12:32:59;36.40;36.50
9179;DHT22;4624;48.126;11.546;2022-10-16T12:35:29;36.20;35.90
9179;DHT22;4624;48.126;11.546;2022-10-16T12:38:06;35.50;36.60
9179;DHT22;4624;48.126;11.546;2022-10-16T12:40:36;35.00;37.10
9179;DHT22;4624;48.126;11.546;2022-10-16T12:43:27;34.80;37.90
9179;DHT22;4624;48.126;11.546;2022-10-16T12:46:19;34.30;38.60
9179;DHT22;4624;48.126;11.546;2022-10-16T12:48:47;33.30;39.10
9179;DHT22;4624;48.126;11.546;2022-10-16T12:51:33;31.90;40.40
9179;DHT22;4624;48.126;11.546;2022-10-16T12:54:01;30.80;42.10
9179;DHT22;4624;48.126;11.546;2022-10-16T12:56:38;30.00;43.80
9179;DHT22;4624;48.126;11.546;2022-10-16T12:59:16;29.40;44.80
9179;DHT22;4624;48.126;11.546;2022-10-16T13:02:02;29.20;45.40
9179;DHT22;4624;48.126;11.546;2022-10-16T13:04:53;29.50;45.60
9179;DHT22;4624;48.126;11.546;2022-10-16T13:07:37;30.90;44.50
9179;DHT22;4624;48.126;11.546;2022-10-16T13:10:14;32.80;43.10
9179;DHT22;4624;48.126;11.546;2022-10-16T13:15:54;36.30;38.00
9179;DHT22;4624;48.126;11.546;2022-10-16T13:18:28;36.80;36.70
9179;DHT22;4624;48.126;11.546;2022-10-16T13:21:08;35.60;36.90
9179;DHT22;4624;48.126;11.546;2022-10-16T13:23:42;33.60;38.60
9179;DHT22;4624;48.126;11.546;2022-10-16T13:26:20;31.60;40.60
9179;DHT22;4624;48.126;11.546;2022-10-16T13:28:51;30.20;42.70
9179;DHT22;4624;48.126;11.546;2022-10-16T13:31:21;28.90;45.40
9179;DHT22;4624;48.126;11.546;2022-10-16T13:33:50;28.00;47.60
9179;DHT22;4624;48.126;11.546;2022-10-16T13:36:21;27.30;48.80
9179;DHT22;4624;48.126;11.546;2022-10-16T13:38:48;26.70;50.00
9179;DHT22;4624;48.126;11.546;2022-10-16T13:41:25;26.20;51.00
9179;DHT22;4624;48.126;11.546;2022-10-16T13:43:54;25.80;51.20
9179;DHT22;4624;48.126;11.546;2022-10-16T13:46:23;25.40;51.30
9179;DHT22;4624;48.126;11.546;2022-10-16T13:48:56;25.00;52.00
9179;DHT22;4624;48.126;11.546;2022-10-16T13:51:23;24.70;51.40
9179;DHT22;4624;48.126;11.546;2022-10-16T13:53:50;24.60;51.60
9179;DHT22;4624;48.126;11.546;2022-10-16T13:56:19;24.50;52.20
9179;DHT22;4624;48.126;11.546;2022-10-16T13:58:57;24.30;53.00
9179;DHT22;4624;48.126;11.546;2022-10-16T14:01:27;24.30;54.10
9179;DHT22;4624;48.126;11.546;2022-10-16T14:04:01;24.10;54.10
9179;DHT22;4624;48.126;11.546;2022-10-16T14:06:29;24.00;54.70
9179;DHT22;4624;48.126;11.546;2022-10-16T14:08:59;23.90;55.10
9179;DHT22;4624;48.126;11.546;2022-10-16T14:11:27;23.90;55.00
9179;DHT22;4624;48.126;11.546;2022-10-16T14:13:55;23.80;54.10
9179;DHT22;4624;48.126;11.546;2022-10-16T14:16:25;23.80;54.40
9179;DHT22;4624;48.126;11.546;2022-10-16T14:18:57;23.70;54.20
9179;DHT22;4624;48.126;11.546;2022-10-16T14:21:24;23.70;54.50
9179;DHT22;4624;48.126;11.546;2022-10-16T14:23:52;23.60;53.90
9179;DHT22;4624;48.126;11.546;2022-10-16T14:26:21;23.50;54.40
9179;DHT22;4624;48.126;11.546;2022-10-16T14:29:00;23.50;54.70
9179;DHT22;4624;48.126;11.546;2022-10-16T14:31:31;23.40;54.60
9179;DHT22;4624;48.126;11.546;2022-10-16T14:33:59;23.40;54.60
9179;DHT22;4624;48.126;11.546;2022-10-16T14:36:27;23.40;55.00
9179;DHT22;4624;48.126;11.546;2022-10-16T14:38:59;23.30;54.40
9179;DHT22;4624;48.126;11.546;2022-10-16T14:41:28;23.30;53.90
9179;DHT22;4624;48.126;11.546;2022-10-16T14:43:56;23.30;53.80
9179;DHT22;4624;48.126;11.546;2022-10-16T14:49:00;23.30;53.80
9179;DHT22;4624;48.126;11.546;2022-10-16T14:51:27;23.30;53.80
9179;DHT22;4624;48.126;11.546;2022-10-16T14:53:53;23.20;53.40
9179;DHT22;4624;48.126;11.546;2022-10-16T14:56:23;23.20;53.80
9179;DHT22;4624;48.126;11.546;2022-10-16T14:58:51;23.20;54.10
9179;DHT22;4624;48.126;11.546;2022-10-16T15:01:19;23.10;54.60
9179;DHT22;4624;48.126;11.546;2022-10-16T15:03:46;23.00;55.00
9179;DHT22;4624;48.126;11.546;2022-10-16T15:06:15;23.00;55.70
9179;DHT22;4624;48.126;11.546;2022-10-16T15:08:42;22.90;55.70
9179;DHT22;4624;48.126;11.546;2022-10-16T15:11:11;22.90;56.00
9179;DHT22;4624;48.126;11.546;2022-10-16T15:13:38;22.80;56.10
9179;DHT22;4624;48.126;11.546;2022-10-16T15:16:08;22.80;56.50
9179;DHT22;4624;48.126;11.546;2022-10-16T15:18:37;22.70;56.80
9179;DHT22;4624;48.126;11.546;2022-10-16T15:21:04;22.70;57.40
9179;DHT22;4624;48.126;11.546;2022-10-16T15:23:32;22.50;57.60
9179;DHT22;4624;48.126;11.546;2022-10-16T15:25:59;22.60;57.70
9179;DHT22;4624;48.126;11.546;2022-10-16T15:28:26;22.50;57.90
9179;DHT22;4624;48.126;11.546;2022-10-16T15:30:54;22.40;58.20
9179;DHT22;4624;48.126;11.546;2022-10-16T15:33:23;22.30;59.20
9179;DHT22;4624;48.126;11.546;2022-10-16T15:35:53;22.20;60.10
9179;DHT22;4624;48.126;11.546;2022-10-16T15:38:21;22.10;61.00
9179;DHT22;4624;48.126;11.546;2022-10-16T15:40:50;22.00;61.70
9179;DHT22;4624;48.126;11.546;2022-10-16T15:43:17;21.90;62.20
9179;DHT22;4624;48.126;11.546;2022-10-16T15:45:44;21.90;62.70
9179;DHT22;4624;48.126;11.546;2022-10-16T15:48:13;21.90;63.20
9179;DHT22;4624;48.126;11.546;2022-10-16T15:50:40;21.80;63.70
9179;DHT22;4624;48.126;11.546;2022-10-16T15:53:08;21.80;64.40
9179;DHT22;4624;48.126;11.546;2022-10-16T15:55:34;21.70;65.30
9179;DHT22;4624;48.126;11.546;2022-10-16T15:58:04;21.60;66.30
9179;DHT22;4624;48.126;11.546;2022-10-16T16:00:31;21.60;67.20
9179;DHT22;4624;48.126;11.546;2022-10-16T16:02:58;21.50;68.20
9179;DHT22;4624;48.126;11.546;2022-10-16T16:05:25;21.40;67.80
9179;DHT22;4624;48.126;11.546;2022-10-16T16:07:53;21.40;68.40
9179;DHT22;4624;48.126;11.546;2022-10-16T16:10:20;21.40;69.10
9179;DHT22;4624;48.126;11.546;2022-10-16T16:12:47;21.30;69.60
9179;DHT22;4624;48.126;11.546;2022-10-16T16:15:19;21.30;70.00